createdAt,value
2017-09-19T00:00:23.062Z,5.07
2017-09-19T00:02:51.339Z,4.13
2017-09-19T00:05:19.617Z,4.13
2017-09-19T00:07:47.899Z,4.57
2017-09-19T00:10:16.475Z,5.57
2017-09-19T00:12:44.771Z,5.70
2017-09-19T00:15:13.096Z,7.70
2017-09-19T00:17:41.368Z,7.97
2017-09-19T00:20:09.644Z,8.23
2017-09-19T00:22:37.962Z,7.70
2017-09-19T00:25:06.257Z,9.13
2017-09-19T00:27:34.559Z,8.43
2017-09-19T00:30:02.839Z,7.50
2017-09-19T00:32:31.110Z,7.40
2017-09-19T00:34:59.431Z,7.37
2017-09-19T00:37:27.735Z,6.37
2017-09-19T00:39:56.816Z,6.23
2017-09-19T00:42:25.333Z,6.83
2017-09-19T00:44:54.395Z,6.90
2017-09-19T00:47:22.711Z,6.07
2017-09-19T00:49:50.981Z,5.80
2017-09-19T00:52:19.264Z,5.30
2017-09-19T00:54:47.535Z,5.00
2017-09-19T00:57:15.810Z,5.80
2017-09-19T00:59:44.121Z,5.83
2017-09-19T01:02:12.406Z,6.20
2017-09-19T01:04:40.691Z,7.20
2017-09-19T01:07:08.983Z,7.60
2017-09-19T01:09:37.319Z,9.47
2017-09-19T01:12:05.608Z,9.07
2017-09-19T01:14:33.899Z,9.73
2017-09-19T01:17:02.475Z,9.30
2017-09-19T01:19:30.788Z,6.90
2017-09-19T01:21:59.840Z,10.83
2017-09-19T01:24:28.130Z,8.93
2017-09-19T01:26:56.492Z,9.17
2017-09-19T01:29:24.831Z,8.27
2017-09-19T01:31:53.940Z,8.13
2017-09-19T01:34:22.230Z,8.93
2017-09-19T01:36:50.513Z,8.13
2017-09-19T01:39:18.803Z,8.00
2017-09-19T01:41:47.093Z,8.17
2017-09-19T01:44:15.383Z,8.07
2017-09-19T01:46:43.671Z,7.63
2017-09-19T01:49:11.975Z,9.40
2017-09-19T01:51:40.263Z,10.20
2017-09-19T01:54:08.575Z,10.80
2017-09-19T01:56:37.631Z,10.97
2017-09-19T01:59:05.923Z,13.60
2017-09-19T02:01:34.236Z,9.77
2017-09-19T02:04:03.306Z,10.10
2017-09-19T02:06:31.601Z,10.53
2017-09-19T02:08:59.889Z,13.77
2017-09-19T02:11:28.209Z,11.30
2017-09-19T02:13:56.518Z,9.83
2017-09-19T02:16:25.604Z,11.13
2017-09-19T02:18:53.896Z,10.17
2017-09-19T02:21:22.981Z,11.37
2017-09-19T02:23:51.279Z,8.10
2017-09-19T02:26:19.615Z,9.33
2017-09-19T02:28:47.917Z,8.47
2017-09-19T02:31:16.206Z,8.07
2017-09-19T02:33:44.531Z,7.30
2017-09-19T02:36:12.824Z,8.60
2017-09-19T02:38:41.134Z,7.97
2017-09-19T02:41:09.452Z,8.67
2017-09-19T02:43:37.735Z,9.30
2017-09-19T02:46:06.799Z,9.20
2017-09-19T02:48:35.104Z,8.40
2017-09-19T02:51:03.507Z,8.63
2017-09-19T02:53:31.782Z,7.90
2017-09-19T02:56:00.319Z,8.57
2017-09-19T02:58:28.599Z,8.10
2017-09-19T03:00:56.948Z,9.67
2017-09-19T03:03:25.312Z,8.87
2017-09-19T03:05:53.592Z,8.07
2017-09-19T03:08:21.902Z,9.53
2017-09-19T03:10:50.189Z,8.77
2017-09-19T03:13:18.471Z,8.13
2017-09-19T03:15:46.768Z,9.00
2017-09-19T03:18:15.061Z,8.77
2017-09-19T03:20:43.354Z,9.40
2017-09-19T03:23:11.647Z,9.13
2017-09-19T03:25:39.936Z,9.70
2017-09-19T03:28:08.219Z,8.53
2017-09-19T03:30:36.497Z,8.90
2017-09-19T03:33:04.785Z,8.30
2017-09-19T03:35:33.063Z,9.20
2017-09-19T03:38:01.350Z,8.77
2017-09-19T03:40:29.645Z,9.97
2017-09-19T03:42:57.966Z,9.33
2017-09-19T03:45:26.265Z,8.03
2017-09-19T03:47:55.336Z,9.70
2017-09-19T03:50:23.618Z,9.03
2017-09-19T03:52:51.912Z,9.17
2017-09-19T03:55:20.203Z,11.23
2017-09-19T03:57:48.494Z,10.73
2017-09-19T04:00:16.793Z,13.17
2017-09-19T04:02:45.176Z,12.90
2017-09-19T04:05:13.693Z,14.17
2017-09-19T04:07:41.989Z,14.23
2017-09-19T04:10:11.053Z,12.77
2017-09-19T04:12:39.343Z,11.70
2017-09-19T04:15:07.629Z,12.50
2017-09-19T04:17:35.910Z,13.27
2017-09-19T04:20:04.229Z,14.43
2017-09-19T04:22:32.639Z,13.70
2017-09-19T04:25:01.054Z,12.87
2017-09-19T04:27:30.163Z,12.93
2017-09-19T04:29:58.482Z,13.07
2017-09-19T04:32:26.815Z,12.40
2017-09-19T04:34:55.184Z,12.87
2017-09-19T04:37:23.503Z,11.03
2017-09-19T04:39:51.789Z,10.43
2017-09-19T04:42:20.261Z,11.43
2017-09-19T04:44:48.574Z,11.10
2017-09-19T04:47:17.635Z,11.03
2017-09-19T04:49:45.957Z,10.63
2017-09-19T04:52:14.248Z,10.90
2017-09-19T04:54:42.588Z,10.83
2017-09-19T04:57:10.920Z,11.53
2017-09-19T04:59:39.240Z,10.60
2017-09-19T05:02:07.539Z,10.50
2017-09-19T05:04:35.854Z,8.57
2017-09-19T05:07:04.163Z,9.00
2017-09-19T05:09:32.488Z,9.77
2017-09-19T05:12:00.969Z,9.50
2017-09-19T05:14:29.284Z,9.27
2017-09-19T05:16:58.343Z,9.07
2017-09-19T05:19:26.682Z,7.90
2017-09-19T05:21:55.053Z,8.10
2017-09-19T05:24:24.353Z,8.97
2017-09-19T05:26:52.672Z,8.63
2017-09-19T05:29:21.715Z,9.37
2017-09-19T05:31:49.994Z,7.77
2017-09-19T05:34:18.285Z,8.60
2017-09-19T05:36:46.588Z,9.10
2017-09-19T05:39:14.891Z,14.20
2017-09-19T05:41:43.213Z,9.87
2017-09-19T05:44:12.259Z,7.93
2017-09-19T05:46:40.542Z,8.20
2017-09-19T05:49:08.822Z,9.37
2017-09-19T05:51:37.097Z,8.10
2017-09-19T05:54:05.387Z,6.70
2017-09-19T05:56:33.684Z,6.90
2017-09-19T05:59:01.968Z,7.40
2017-09-19T06:01:30.258Z,6.97
2017-09-19T06:03:59.307Z,7.87
2017-09-19T06:06:27.794Z,7.13
2017-09-19T06:09:07.924Z,7.10
2017-09-19T06:11:36.206Z,6.47
2017-09-19T06:14:05.266Z,6.50
2017-09-19T06:16:33.552Z,6.20
2017-09-19T06:19:01.837Z,5.93
2017-09-19T06:21:30.123Z,5.27
2017-09-19T06:23:59.001Z,5.30
2017-09-19T06:26:27.355Z,7.73
2017-09-19T06:28:55.672Z,8.90
2017-09-19T06:31:24.017Z,5.97
2017-09-19T06:33:52.907Z,5.83
2017-09-19T06:36:21.182Z,6.50
2017-09-19T06:38:49.484Z,7.00
2017-09-19T06:41:17.782Z,7.20
2017-09-19T06:43:46.100Z,6.23
2017-09-19T06:46:15.143Z,6.83
2017-09-19T06:48:43.426Z,7.03
2017-09-19T06:51:11.715Z,5.03
2017-09-19T06:53:40.003Z,6.00
2017-09-19T06:56:08.406Z,4.77
2017-09-19T06:58:36.689Z,5.17
2017-09-19T07:01:04.970Z,4.80
2017-09-19T07:03:33.295Z,4.37
2017-09-19T07:06:03.087Z,5.43
2017-09-19T07:08:31.371Z,4.13
2017-09-19T07:10:59.691Z,4.43
2017-09-19T07:13:28.087Z,5.60
2017-09-19T07:15:56.817Z,3.80
2017-09-19T07:18:25.387Z,4.47
2017-09-19T07:20:54.539Z,2.53
2017-09-19T07:23:22.814Z,2.10
2017-09-19T07:25:51.883Z,2.50
2017-09-19T07:28:20.162Z,2.70
2017-09-19T07:30:48.437Z,3.23
2017-09-19T07:33:17.064Z,3.70
2017-09-19T07:35:47.616Z,4.70
2017-09-19T07:38:16.325Z,5.93
2017-09-19T07:40:45.338Z,7.33
2017-09-19T07:43:14.309Z,6.30
2017-09-19T07:45:43.032Z,7.53
2017-09-19T07:48:11.542Z,6.60
2017-09-19T07:50:39.839Z,7.90
2017-09-19T07:53:08.123Z,7.37
2017-09-19T07:55:36.415Z,7.40
2017-09-19T07:58:05.455Z,8.13
2017-09-19T08:00:33.734Z,4.70
2017-09-19T08:03:02.013Z,5.63
2017-09-19T08:05:30.295Z,4.77
2017-09-19T08:07:58.610Z,5.23
2017-09-19T08:10:26.904Z,5.70
2017-09-19T08:12:55.281Z,5.20
2017-09-19T08:15:23.562Z,6.10
2017-09-19T08:17:51.834Z,5.57
2017-09-19T08:20:20.113Z,5.50
2017-09-19T08:22:49.155Z,6.60
2017-09-19T08:25:18.219Z,5.80
2017-09-19T08:27:46.499Z,5.47
2017-09-19T08:30:14.772Z,5.40
2017-09-19T08:32:43.065Z,6.27
2017-09-19T08:35:12.139Z,5.67
2017-09-19T08:37:40.423Z,5.80
2017-09-19T08:40:08.703Z,5.63
2017-09-19T08:42:36.988Z,6.43
2017-09-19T08:45:05.270Z,5.80
2017-09-19T08:47:33.580Z,6.07
2017-09-19T08:50:01.910Z,5.50
2017-09-19T08:52:30.186Z,6.00
2017-09-19T08:54:58.540Z,7.10
2017-09-19T08:57:26.858Z,6.43
2017-09-19T08:59:55.155Z,7.53
2017-09-19T09:02:23.459Z,7.67
2017-09-19T09:04:51.742Z,7.17
2017-09-19T09:07:20.028Z,8.60
2017-09-19T09:09:48.315Z,6.90
2017-09-19T09:12:16.687Z,7.03
2017-09-19T09:14:44.971Z,6.20
2017-09-19T09:17:13.263Z,6.20
2017-09-19T09:19:41.714Z,7.10
2017-09-19T09:22:10.028Z,5.67
2017-09-19T09:24:38.311Z,7.63
2017-09-19T09:27:06.608Z,8.17
2017-09-19T09:29:34.883Z,5.40
2017-09-19T09:32:03.162Z,5.40
2017-09-19T09:34:31.599Z,6.63
2017-09-19T09:36:59.881Z,6.90
2017-09-19T09:39:28.188Z,7.17
2017-09-19T09:41:56.583Z,6.80
2017-09-19T09:44:25.984Z,7.40
2017-09-19T09:46:54.299Z,6.20
2017-09-19T09:49:23.545Z,6.53
2017-09-19T09:51:51.825Z,6.40
2017-09-19T09:54:20.119Z,6.30
2017-09-19T09:56:48.399Z,6.70
2017-09-19T09:59:16.691Z,7.90
2017-09-19T10:01:44.975Z,6.93
2017-09-19T10:04:13.277Z,7.90
2017-09-19T10:06:41.566Z,8.07
2017-09-19T10:09:09.847Z,6.17
2017-09-19T10:11:38.131Z,6.03
2017-09-19T10:14:06.419Z,4.90
2017-09-19T10:19:09.619Z,5.80
2017-09-19T10:21:37.917Z,6.17
2017-09-19T10:24:06.233Z,6.23
2017-09-19T10:26:34.518Z,7.80
2017-09-19T10:29:02.811Z,7.17
2017-09-19T10:31:31.107Z,8.40
2017-09-19T10:33:59.390Z,7.37
2017-09-19T10:36:27.725Z,9.40
2017-09-19T10:38:56.019Z,8.33
2017-09-19T10:41:24.311Z,7.67
2017-09-19T10:43:52.607Z,8.57
2017-09-19T10:46:20.915Z,8.73
2017-09-19T10:48:50.024Z,10.03
2017-09-19T10:51:19.088Z,8.23
2017-09-19T10:53:47.370Z,8.73
2017-09-19T10:56:15.656Z,7.77
2017-09-19T10:58:43.987Z,7.60
2017-09-19T11:01:13.043Z,9.20
2017-09-19T11:03:41.356Z,8.00
2017-09-19T11:06:09.687Z,7.23
2017-09-19T11:08:38.733Z,7.37
2017-09-19T11:11:07.782Z,7.67
2017-09-19T11:13:36.067Z,7.93
2017-09-19T11:16:04.362Z,8.90
2017-09-19T11:18:33.418Z,7.77
2017-09-19T11:21:01.706Z,6.00
2017-09-19T11:23:30.543Z,6.17
2017-09-19T11:25:58.868Z,5.60
2017-09-19T11:28:27.162Z,7.67
2017-09-19T11:30:55.480Z,6.53
2017-09-19T11:33:23.799Z,7.53
2017-09-19T11:35:52.090Z,7.03
2017-09-19T11:38:20.376Z,7.20
2017-09-19T11:40:48.851Z,7.13
2017-09-19T11:43:17.144Z,6.30
2017-09-19T11:45:45.424Z,5.67
2017-09-19T11:48:14.083Z,6.33
2017-09-19T11:50:42.640Z,6.50
2017-09-19T11:53:10.951Z,6.53
2017-09-19T11:55:40.003Z,7.27
2017-09-19T11:58:08.295Z,6.50
2017-09-19T12:00:36.574Z,6.43
2017-09-19T12:03:04.891Z,5.53
2017-09-19T12:05:33.172Z,6.07
2017-09-19T12:08:01.464Z,6.13
2017-09-19T12:10:29.774Z,6.87
2017-09-19T12:12:58.103Z,5.13
2017-09-19T12:15:26.540Z,6.33
2017-09-19T12:17:54.847Z,6.40
2017-09-19T12:20:23.166Z,6.53
2017-09-19T12:22:51.455Z,6.83
2017-09-19T12:25:19.740Z,5.20
2017-09-19T12:27:48.043Z,6.83
2017-09-19T12:30:16.454Z,6.70
2017-09-19T12:32:44.763Z,5.80
2017-09-19T12:35:13.051Z,5.87
2017-09-19T12:37:41.340Z,5.50
2017-09-19T12:40:09.638Z,5.50
2017-09-19T12:42:37.925Z,6.30
2017-09-19T12:45:06.336Z,7.37
2017-09-19T12:47:34.619Z,8.47
2017-09-19T12:50:03.104Z,6.90
2017-09-19T12:52:32.387Z,7.27
2017-09-19T12:55:00.727Z,7.17
2017-09-19T12:57:29.311Z,7.23
2017-09-19T12:59:57.886Z,7.20
2017-09-19T13:02:26.334Z,8.63
2017-09-19T13:04:55.269Z,7.40
2017-09-19T13:07:23.551Z,7.30
2017-09-19T13:09:51.834Z,6.70
2017-09-19T13:12:20.147Z,6.87
2017-09-19T13:14:48.449Z,5.73
2017-09-19T13:17:16.736Z,6.53
2017-09-19T13:19:45.030Z,6.17
2017-09-19T13:22:13.311Z,7.20
2017-09-19T13:24:41.596Z,7.20
2017-09-19T13:27:09.991Z,7.20
2017-09-19T13:29:38.279Z,7.50
2017-09-19T13:32:18.230Z,6.13
2017-09-19T13:34:46.514Z,6.40
2017-09-19T13:37:14.810Z,6.83
2017-09-19T13:39:43.117Z,6.10
2017-09-19T13:42:11.846Z,6.10
2017-09-19T13:44:40.126Z,6.00
2017-09-19T13:47:09.183Z,6.90
2017-09-19T13:49:37.679Z,9.80
2017-09-19T13:52:06.082Z,13.47
2017-09-19T13:54:34.382Z,15.23
2017-09-19T13:57:03.508Z,16.60
2017-09-19T13:59:32.694Z,19.20
2017-09-19T14:02:01.533Z,20.40
2017-09-19T14:04:29.958Z,20.90
2017-09-19T14:06:58.964Z,20.80
2017-09-19T14:09:27.743Z,21.97
2017-09-19T14:11:56.122Z,21.37
2017-09-19T14:14:25.231Z,21.80
2017-09-19T14:16:54.295Z,20.30
2017-09-19T14:19:22.586Z,19.10
2017-09-19T14:21:50.884Z,20.40
2017-09-19T14:24:19.194Z,18.03
2017-09-19T14:26:48.251Z,15.80
2017-09-19T14:29:16.575Z,17.20
2017-09-19T14:31:44.874Z,16.70
2017-09-19T14:34:13.941Z,17.67
2017-09-19T14:36:42.246Z,17.50
2017-09-19T14:39:10.539Z,18.37
2017-09-19T14:41:38.831Z,15.73
2017-09-19T14:44:07.166Z,17.47
2017-09-19T14:46:35.450Z,16.47
2017-09-19T14:49:04.507Z,16.83
2017-09-19T14:51:32.945Z,19.13
2017-09-19T14:54:01.998Z,18.10
2017-09-19T14:56:30.290Z,17.60
2017-09-19T14:58:58.594Z,22.80
2017-09-19T15:01:27.686Z,21.97
2017-09-19T15:03:56.758Z,22.17
2017-09-19T15:06:25.059Z,21.97
2017-09-19T15:08:53.354Z,24.10
2017-09-19T15:11:21.659Z,24.23
2017-09-19T15:13:49.955Z,22.07
2017-09-19T15:16:18.255Z,20.10
2017-09-19T15:18:46.627Z,19.30
2017-09-19T15:21:15.124Z,19.47
2017-09-19T15:23:43.445Z,17.93
2017-09-19T15:26:12.524Z,17.00
2017-09-19T15:28:40.855Z,17.27
2017-09-19T15:31:09.159Z,17.30
2017-09-19T15:33:37.455Z,17.07
2017-09-19T15:36:05.767Z,17.87
2017-09-19T15:38:34.827Z,15.97
2017-09-19T15:41:03.385Z,15.63
2017-09-19T15:43:31.725Z,16.17
2017-09-19T15:46:00.071Z,16.93
2017-09-19T15:48:28.403Z,14.87
2017-09-19T15:50:57.560Z,15.37
2017-09-19T15:53:25.862Z,15.23
2017-09-19T15:55:54.163Z,14.30
2017-09-19T15:58:23.218Z,14.87
2017-09-19T16:00:51.536Z,14.93
2017-09-19T16:03:19.839Z,13.90
2017-09-19T16:05:48.902Z,12.97
2017-09-19T16:08:17.197Z,14.63
2017-09-19T16:10:45.514Z,15.77
2017-09-19T16:13:13.930Z,16.10
2017-09-19T16:15:42.986Z,13.30
2017-09-19T16:18:11.281Z,14.07
2017-09-19T16:20:39.571Z,13.90
2017-09-19T16:23:07.875Z,12.37
2017-09-19T16:25:38.106Z,15.10
2017-09-19T16:28:06.408Z,12.90
2017-09-19T16:30:34.703Z,13.00
2017-09-19T16:33:03.072Z,11.83
2017-09-19T16:35:32.977Z,11.73
2017-09-19T16:38:02.295Z,11.10
2017-09-19T16:40:30.729Z,12.17
2017-09-19T16:42:59.114Z,13.63
2017-09-19T16:45:27.465Z,14.40
2017-09-19T16:47:55.827Z,13.50
2017-09-19T16:50:24.136Z,13.27
2017-09-19T16:52:52.459Z,13.40
2017-09-19T16:55:20.770Z,14.33
2017-09-19T16:57:49.855Z,13.40
2017-09-19T17:00:18.158Z,14.20
2017-09-19T17:02:46.586Z,16.57
2017-09-19T17:05:14.947Z,15.60
2017-09-19T17:07:43.239Z,15.97
2017-09-19T17:10:12.312Z,16.27
2017-09-19T17:12:40.627Z,18.20
2017-09-19T17:15:08.950Z,16.33
2017-09-19T17:17:37.247Z,17.77
2017-09-19T17:20:05.568Z,18.10
2017-09-19T17:22:33.853Z,18.60
2017-09-19T17:25:02.270Z,18.73
2017-09-19T17:27:30.945Z,18.20
2017-09-19T17:29:59.874Z,19.20
2017-09-19T17:32:28.782Z,19.30
2017-09-19T17:34:57.635Z,21.60
2017-09-19T17:37:27.353Z,18.90
2017-09-19T17:39:56.355Z,19.73
2017-09-19T17:42:25.178Z,19.40
2017-09-19T17:44:54.783Z,20.30
2017-09-19T17:47:23.196Z,22.03
2017-09-19T17:49:51.874Z,24.43
2017-09-19T17:52:20.772Z,21.90
2017-09-19T17:54:49.351Z,23.50
2017-09-19T17:57:17.978Z,22.40
2017-09-19T17:59:46.406Z,24.70
2017-09-19T18:02:14.798Z,25.03
2017-09-19T18:04:43.979Z,24.03
2017-09-19T18:07:12.450Z,26.13
2017-09-19T18:09:40.875Z,24.90
2017-09-19T18:12:09.182Z,26.53
2017-09-19T18:14:37.540Z,29.20
2017-09-19T18:17:05.857Z,32.67
2017-09-19T18:19:34.287Z,30.27
2017-09-19T18:22:02.619Z,28.90
2017-09-19T18:24:30.913Z,30.20
2017-09-19T18:26:59.223Z,31.30
2017-09-19T18:29:27.576Z,32.33
2017-09-19T18:31:55.885Z,32.97
2017-09-19T18:34:24.174Z,33.10
2017-09-19T18:36:52.516Z,34.67
2017-09-19T18:39:20.803Z,35.27
2017-09-19T18:41:49.088Z,33.30
2017-09-19T18:44:17.442Z,34.27
2017-09-19T18:46:45.731Z,32.90
2017-09-19T18:49:14.251Z,30.67
2017-09-19T18:51:43.325Z,32.30
2017-09-19T18:54:11.656Z,29.63
2017-09-19T18:56:39.968Z,34.20
2017-09-19T18:59:08.263Z,33.00
2017-09-19T19:01:36.554Z,35.43
2017-09-19T19:04:04.859Z,34.17
2017-09-19T19:06:33.179Z,32.13
2017-09-19T19:09:01.524Z,31.10
2017-09-19T19:11:29.851Z,33.50
2017-09-19T19:13:58.927Z,31.60
2017-09-19T19:16:27.264Z,30.27
2017-09-19T19:18:55.635Z,33.80
2017-09-19T19:21:23.934Z,34.43
2017-09-19T19:23:52.272Z,35.67
2017-09-19T19:26:20.564Z,34.47
2017-09-19T19:28:48.894Z,32.87
2017-09-19T19:31:17.195Z,32.30
2017-09-19T19:33:45.595Z,32.90
2017-09-19T19:36:14.663Z,34.13
2017-09-19T19:38:42.959Z,32.60
2017-09-19T19:41:12.092Z,33.00
2017-09-19T19:43:41.231Z,32.93
2017-09-19T19:46:09.511Z,33.63
2017-09-19T19:48:37.792Z,35.10
2017-09-19T19:51:06.078Z,38.00
2017-09-19T19:53:35.667Z,38.77
2017-09-19T19:56:03.959Z,39.10
2017-09-19T19:58:32.242Z,38.63
2017-09-19T20:01:00.559Z,36.20
2017-09-19T20:03:29.659Z,36.93
2017-09-19T20:05:58.946Z,35.70
2017-09-19T20:08:27.394Z,34.60
2017-09-19T20:10:55.727Z,38.30
2017-09-19T20:13:24.141Z,39.37
2017-09-19T20:15:52.599Z,38.93
2017-09-19T20:18:21.660Z,38.90
2017-09-19T20:20:50.170Z,38.00
2017-09-19T20:23:19.090Z,36.40
2017-09-19T20:25:47.537Z,37.20
2017-09-19T20:28:15.879Z,38.10
2017-09-19T20:30:44.560Z,39.80
2017-09-19T20:33:12.991Z,38.37
2017-09-19T20:35:41.509Z,40.83
2017-09-19T20:38:09.866Z,39.50
2017-09-19T20:40:38.155Z,38.47
2017-09-19T20:43:06.446Z,37.23
2017-09-19T20:45:34.763Z,35.40
2017-09-19T20:48:03.824Z,38.67
2017-09-19T20:50:32.110Z,36.53
2017-09-19T20:53:00.491Z,34.63
2017-09-19T20:55:28.860Z,35.87
2017-09-19T20:57:57.224Z,36.90
2017-09-19T21:00:25.520Z,38.83
2017-09-19T21:02:53.326Z,40.57
2017-09-19T21:05:27.209Z,42.50
2017-09-19T21:08:01.187Z,42.17
2017-09-19T21:10:35.147Z,44.20
2017-09-19T21:13:09.890Z,51.40
2017-09-19T21:15:44.655Z,37.70
2017-09-19T21:18:18.536Z,38.23
2017-09-19T21:20:47.612Z,37.80
2017-09-19T21:23:15.939Z,39.10
2017-09-19T21:25:45.022Z,40.37
2017-09-19T21:28:13.327Z,40.70
2017-09-19T21:30:41.615Z,39.97
2017-09-19T21:33:10.294Z,38.97
2017-09-19T21:35:39.648Z,38.20
2017-09-19T21:38:09.077Z,39.53
2017-09-19T21:40:37.494Z,39.97
2017-09-19T21:43:05.965Z,40.43
2017-09-19T21:45:34.271Z,41.47
2017-09-19T21:48:05.316Z,39.93
2017-09-19T21:50:34.157Z,44.80
2017-09-19T21:53:02.447Z,42.67
2017-09-19T21:55:30.783Z,41.27
2017-09-19T21:57:59.848Z,44.33
2017-09-19T22:00:28.144Z,46.50
2017-09-19T22:02:56.771Z,48.27
2017-09-19T22:05:25.094Z,49.00
2017-09-19T22:07:53.403Z,43.80
2017-09-19T22:10:21.759Z,45.30
2017-09-19T22:12:50.103Z,44.03
2017-09-19T22:15:18.493Z,44.03
2017-09-19T22:17:46.787Z,43.13
2017-09-19T22:20:15.847Z,43.50
2017-09-19T22:22:44.267Z,45.83
2017-09-19T22:25:12.565Z,46.03
2017-09-19T22:27:40.854Z,44.23
2017-09-19T22:30:09.151Z,45.07
2017-09-19T22:32:38.243Z,44.10
2017-09-19T22:35:06.559Z,39.43
2017-09-19T22:37:35.648Z,44.87
2017-09-19T22:40:05.453Z,41.10
2017-09-19T22:42:33.747Z,41.10
2017-09-19T22:45:02.150Z,43.10
2017-09-19T22:47:30.636Z,41.90
2017-09-19T22:49:58.922Z,45.40
2017-09-19T22:52:27.227Z,48.20
2017-09-19T22:54:55.524Z,45.57
2017-09-19T22:57:24.582Z,47.93
2017-09-19T22:59:52.911Z,47.57
2017-09-19T23:02:21.228Z,47.10
2017-09-19T23:04:49.600Z,46.10
2017-09-19T23:07:18.786Z,48.57
2017-09-19T23:09:47.076Z,47.57
2017-09-19T23:12:15.470Z,51.77
2017-09-19T23:14:43.860Z,55.47
2017-09-19T23:17:12.163Z,50.77
2017-09-19T23:19:41.964Z,51.30
2017-09-19T23:22:10.266Z,51.33
2017-09-19T23:24:39.347Z,50.70
2017-09-19T23:27:07.690Z,49.13
2017-09-19T23:29:36.037Z,52.80
2017-09-19T23:32:04.349Z,53.20
2017-09-19T23:34:32.643Z,56.30
2017-09-19T23:37:00.963Z,54.87
2017-09-19T23:39:29.263Z,54.00
2017-09-19T23:41:57.567Z,50.23
2017-09-19T23:44:25.874Z,48.60
2017-09-19T23:46:54.198Z,47.13
2017-09-19T23:49:23.490Z,48.83
2017-09-19T23:51:51.795Z,49.80
2017-09-19T23:54:20.948Z,49.17
2017-09-19T23:56:49.303Z,48.50
2017-09-19T23:59:18.418Z,50.80
